createdAt,value
2016-04-19T00:00:30.199Z,1015.45
2016-04-19T00:01:30.233Z,1015.39
2016-04-19T00:02:30.267Z,1015.48
2016-04-19T00:03:30.300Z,1015.48
2016-04-19T00:04:30.335Z,1015.46
2016-04-19T00:05:30.368Z,1015.48
2016-04-19T00:06:30.402Z,1015.43
2016-04-19T00:07:30.436Z,1015.5
2016-04-19T00:08:30.470Z,1015.48
2016-04-19T00:09:30.505Z,1015.47
2016-04-19T00:10:30.554Z,1015.49
2016-04-19T00:11:30.571Z,1015.47
2016-04-19T00:12:30.606Z,1015.53
2016-04-19T00:13:30.640Z,1015.5
2016-04-19T00:14:30.674Z,1015.48
2016-04-19T00:15:30.707Z,1015.48
2016-04-19T00:16:30.742Z,1015.49
2016-04-19T00:17:30.775Z,1015.52
2016-04-19T00:18:30.810Z,1015.51
2016-04-19T00:19:30.843Z,1015.53
2016-04-19T00:20:30.877Z,1015.54
2016-04-19T00:21:30.922Z,1015.55
2016-04-19T00:22:31.176Z,1015.56
2016-04-19T00:23:30.975Z,1015.52
2016-04-19T00:24:31.009Z,1015.54
2016-04-19T00:25:31.043Z,1015.55
2016-04-19T00:26:31.077Z,1015.5
2016-04-19T00:27:31.110Z,1015.52
2016-04-19T00:28:31.146Z,1015.56
2016-04-19T00:29:31.695Z,1015.59
2016-04-19T00:30:31.353Z,1015.56
2016-04-19T00:31:31.794Z,1015.59
2016-04-19T00:32:31.281Z,1015.56
2016-04-19T00:33:31.315Z,1015.55
2016-04-19T00:34:31.349Z,1015.54
2016-04-19T00:35:31.382Z,1015.56
2016-04-19T00:36:31.417Z,1015.51
2016-04-19T00:37:31.450Z,1015.57
2016-04-19T00:38:31.484Z,1015.58
2016-04-19T00:39:31.517Z,1015.57
2016-04-19T00:40:31.553Z,1015.59
2016-04-19T00:41:31.586Z,1015.61
2016-04-19T00:42:31.620Z,1015.59
2016-04-19T00:43:31.654Z,1015.55
2016-04-19T00:44:31.689Z,1015.53
2016-04-19T00:45:31.722Z,1015.56
2016-04-19T00:46:31.756Z,1015.55
2016-04-19T00:47:31.789Z,1015.54
2016-04-19T00:48:31.824Z,1015.56
2016-04-19T00:49:31.858Z,1015.54
2016-04-19T00:50:31.892Z,1015.62
2016-04-19T00:51:31.925Z,1015.56
2016-04-19T00:52:31.960Z,1015.61
2016-04-19T00:53:31.977Z,1015.56
2016-04-19T00:54:32.027Z,1015.59
2016-04-19T00:55:32.060Z,1015.61
2016-04-19T00:56:32.079Z,1015.57
2016-04-19T00:57:32.114Z,1015.56
2016-04-19T00:58:32.163Z,1015.49
2016-04-19T00:59:32.197Z,1015.53
2016-04-19T01:00:32.231Z,1015.54
2016-04-19T01:01:32.249Z,1015.56
2016-04-19T01:02:32.284Z,1015.53
2016-04-19T01:03:32.333Z,1015.51
2016-04-19T01:04:32.351Z,1015.56
2016-04-19T01:05:32.401Z,1015.53
2016-04-19T01:06:32.420Z,1015.5
2016-04-19T01:07:32.454Z,1015.5
2016-04-19T01:08:32.487Z,1015.49
2016-04-19T01:09:32.521Z,1015.52
2016-04-19T01:10:32.555Z,1015.5
2016-04-19T01:11:32.589Z,1015.48
2016-04-19T01:12:32.639Z,1015.51
2016-04-19T01:13:32.673Z,1015.49
2016-04-19T01:14:32.691Z,1015.41
2016-04-19T01:15:32.725Z,1015.45
2016-04-19T01:16:32.759Z,1015.46
2016-04-19T01:17:32.792Z,1015.49
2016-04-19T01:18:32.827Z,1015.51
2016-04-19T01:19:32.861Z,1015.47
2016-04-19T01:20:32.894Z,1015.49
2016-04-19T01:21:32.928Z,1015.47
2016-04-19T01:22:32.963Z,1015.46
2016-04-19T01:23:32.996Z,1015.43
2016-04-19T01:24:33.030Z,1015.4
2016-04-19T01:25:33.064Z,1015.41
2016-04-19T01:26:33.098Z,1015.45
2016-04-19T01:27:33.132Z,1015.47
2016-04-19T01:28:33.166Z,1015.45
2016-04-19T01:29:33.200Z,1015.47
2016-04-19T01:30:33.234Z,1015.44
2016-04-19T01:31:33.268Z,1015.47
2016-04-19T01:32:33.301Z,1015.49
2016-04-19T01:33:33.335Z,1015.49
2016-04-19T01:34:33.370Z,1015.51
2016-04-19T01:35:33.404Z,1015.48
2016-04-19T01:36:33.437Z,1015.49
2016-04-19T01:37:33.471Z,1015.58
2016-04-19T01:38:33.505Z,1015.48
2016-04-19T01:39:33.540Z,1015.51
2016-04-19T01:40:33.573Z,1015.55
2016-04-19T01:41:33.607Z,1015.52
2016-04-19T01:42:33.641Z,1015.55
2016-04-19T01:43:33.675Z,1015.52
2016-04-19T01:44:33.709Z,1015.47
2016-04-19T01:45:33.742Z,1015.49
2016-04-19T01:46:33.777Z,1015.45
2016-04-19T01:47:33.795Z,1015.5
2016-04-19T01:48:33.845Z,1015.57
2016-04-19T01:49:33.878Z,1015.51
2016-04-19T01:50:33.897Z,1015.51
2016-04-19T01:51:33.930Z,1015.54
2016-04-19T01:52:33.965Z,1015.55
2016-04-19T01:53:33.998Z,1015.55
2016-04-19T01:54:34.032Z,1015.51
2016-04-19T01:55:34.067Z,1015.52
2016-04-19T01:56:34.100Z,1015.53
2016-04-19T01:57:34.135Z,1015.54
2016-04-19T01:58:34.168Z,1015.53
2016-04-19T01:59:34.202Z,1015.54
2016-04-19T02:00:34.235Z,1015.58
2016-04-19T02:01:34.270Z,1015.58
2016-04-19T02:02:34.304Z,1015.58
2016-04-19T02:03:34.338Z,1015.61
2016-04-19T02:04:34.371Z,1015.58
2016-04-19T02:05:34.406Z,1015.57
2016-04-19T02:06:34.440Z,1015.6
2016-04-19T02:07:34.474Z,1015.6
2016-04-19T02:08:34.507Z,1015.59
2016-04-19T02:09:34.542Z,1015.55
2016-04-19T02:10:34.576Z,1015.55
2016-04-19T02:11:34.610Z,1015.53
2016-04-19T02:12:34.643Z,1015.54
2016-04-19T02:13:34.678Z,1015.53
2016-04-19T02:14:34.711Z,1015.51
2016-04-19T02:15:34.745Z,1015.54
2016-04-19T02:16:34.778Z,1015.56
2016-04-19T02:17:34.813Z,1015.58
2016-04-19T02:18:34.847Z,1015.58
2016-04-19T02:19:34.866Z,1015.57
2016-04-19T02:20:34.914Z,1015.54
2016-04-19T02:21:34.933Z,1015.55
2016-04-19T02:22:34.983Z,1015.52
2016-04-19T02:23:35.017Z,1015.54
2016-04-19T02:24:35.050Z,1015.55
2016-04-19T02:25:35.069Z,1015.59
2016-04-19T02:26:35.103Z,1015.61
2016-04-19T02:27:35.137Z,1015.59
2016-04-19T02:28:35.186Z,1015.57
2016-04-19T02:29:35.205Z,1015.58
2016-04-19T02:30:35.239Z,1015.62
